createdAt,value
2019-04-28T00:00:53.905Z,96.78
2019-04-28T00:03:22.771Z,96.98
2019-04-28T00:05:51.402Z,96.28
2019-04-28T00:08:20.796Z,96.83
2019-04-28T00:10:53.120Z,96.32
2019-04-28T00:13:20.918Z,97.46
2019-04-28T00:15:49.219Z,97.93
2019-04-28T00:18:17.668Z,98.04
2019-04-28T00:21:05.566Z,98.38
2019-04-28T00:23:51.724Z,99.79
2019-04-28T00:26:42.615Z,100.00
2019-04-28T00:29:11.211Z,100.00
2019-04-28T00:31:41.373Z,100.00
2019-04-28T00:34:11.467Z,99.93
2019-04-28T00:36:43.144Z,100.00
2019-04-28T00:39:11.947Z,100.00
2019-04-28T00:41:42.090Z,100.00
2019-04-28T00:44:12.028Z,100.00
2019-04-28T00:46:42.214Z,100.00
2019-04-28T00:49:11.893Z,100.00
2019-04-28T00:51:41.509Z,100.00
2019-04-28T00:54:12.135Z,100.00
2019-04-28T00:56:41.804Z,100.00
2019-04-28T00:59:11.797Z,100.00
2019-04-28T01:01:51.309Z,100.00
2019-04-28T01:04:21.961Z,99.66
2019-04-28T01:06:51.983Z,100.00
2019-04-28T01:09:21.976Z,99.49
2019-04-28T01:11:51.099Z,98.78
2019-04-28T01:14:21.328Z,99.01
2019-04-28T01:16:57.362Z,99.04
2019-04-28T01:19:30.144Z,98.79
2019-04-28T01:22:12.686Z,98.57
2019-04-28T01:24:41.699Z,98.39
2019-04-28T01:27:45.348Z,98.01
2019-04-28T01:30:21.144Z,98.01
2019-04-28T01:32:56.500Z,99.20
2019-04-28T01:35:25.059Z,98.18
2019-04-28T01:37:53.851Z,97.95
2019-04-28T01:40:22.436Z,98.08
2019-04-28T01:42:51.128Z,97.82
2019-04-28T01:45:20.587Z,98.19
2019-04-28T01:47:50.431Z,98.12
2019-04-28T01:50:20.516Z,97.63
2019-04-28T01:52:49.644Z,96.96
2019-04-28T01:55:20.279Z,96.88
2019-04-28T01:57:49.787Z,96.44
2019-04-28T02:00:25.304Z,96.53
2019-04-28T02:02:50.612Z,95.91
2019-04-28T02:05:19.719Z,96.27
2019-04-28T02:07:50.374Z,95.64
2019-04-28T02:10:20.202Z,95.90
2019-04-28T02:12:50.324Z,95.79
2019-04-28T02:15:20.205Z,95.32
2019-04-28T02:17:49.992Z,95.73
2019-04-28T02:20:20.432Z,95.96
2019-04-28T02:22:54.982Z,94.89
2019-04-28T02:25:23.515Z,96.09
2019-04-28T02:27:51.652Z,96.03
2019-04-28T02:30:22.630Z,96.02
2019-04-28T02:32:51.905Z,96.13
2019-04-28T02:35:21.490Z,96.79
2019-04-28T02:37:50.673Z,95.99
2019-04-28T02:40:20.719Z,95.28
2019-04-28T02:42:51.904Z,95.41
2019-04-28T02:45:21.805Z,95.30
2019-04-28T02:47:52.599Z,95.12
2019-04-28T02:50:41.126Z,95.40
2019-04-28T02:53:15.791Z,95.47
2019-04-28T02:55:44.287Z,95.65
2019-04-28T02:58:13.454Z,97.23
2019-04-28T03:01:00.387Z,97.53
2019-04-28T03:03:12.550Z,97.78
2019-04-28T03:05:41.369Z,97.25
2019-04-28T03:08:11.129Z,98.62
2019-04-28T03:10:40.972Z,100.00
2019-04-28T03:13:13.081Z,100.00
2019-04-28T03:15:41.669Z,100.00
2019-04-28T03:18:11.487Z,100.00
2019-04-28T03:20:41.900Z,100.00
2019-04-28T03:23:12.428Z,99.50
2019-04-28T03:26:03.135Z,99.55
2019-04-28T03:29:04.324Z,99.26
2019-04-28T03:32:16.469Z,98.30
2019-04-28T03:34:43.573Z,97.83
2019-04-28T03:37:11.497Z,97.62
2019-04-28T03:39:40.653Z,96.79
2019-04-28T03:42:11.449Z,96.65
2019-04-28T03:44:41.442Z,97.46
2019-04-28T03:47:10.742Z,98.17
2019-04-28T03:49:40.581Z,97.67
2019-04-28T03:52:10.725Z,96.81
2019-04-28T03:54:40.951Z,97.01
2019-04-28T03:57:11.442Z,96.57
2019-04-28T03:59:41.316Z,96.05
2019-04-28T04:02:11.310Z,96.28
2019-04-28T04:04:41.444Z,96.13
2019-04-28T04:07:11.052Z,96.98
2019-04-28T04:09:51.516Z,96.01
2019-04-28T04:12:30.734Z,95.54
2019-04-28T04:15:04.475Z,95.81
2019-04-28T04:17:36.821Z,95.82
2019-04-28T04:20:06.388Z,96.06
2019-04-28T04:22:35.279Z,95.46
2019-04-28T04:25:04.292Z,95.99
2019-04-28T04:27:32.938Z,96.05
2019-04-28T04:30:01.924Z,95.70
2019-04-28T04:32:33.866Z,95.43
2019-04-28T04:35:00.993Z,95.41
2019-04-28T04:37:30.822Z,95.48
2019-04-28T04:40:01.198Z,95.33
2019-04-28T04:42:30.636Z,95.73
2019-04-28T04:45:00.560Z,95.89
2019-04-28T04:47:32.477Z,95.78
2019-04-28T04:50:00.335Z,95.68
2019-04-28T04:52:30.443Z,95.72
2019-04-28T04:55:01.260Z,95.94
2019-04-28T04:57:32.365Z,95.35
2019-04-28T05:00:01.727Z,95.03
2019-04-28T05:02:55.955Z,95.27
2019-04-28T05:05:33.944Z,95.65
2019-04-28T05:08:02.156Z,95.85
2019-04-28T05:10:30.817Z,95.74
2019-04-28T05:13:00.207Z,96.92
2019-04-28T05:15:30.324Z,97.00
2019-04-28T05:18:00.199Z,96.62
2019-04-28T05:20:30.272Z,96.47
2019-04-28T05:23:09.620Z,98.60
2019-04-28T05:25:40.762Z,97.01
2019-04-28T05:28:10.431Z,98.80
2019-04-28T05:30:42.723Z,97.52
2019-04-28T05:33:11.861Z,96.58
2019-04-28T05:35:40.430Z,95.30
2019-04-28T05:38:09.946Z,95.52
2019-04-28T05:40:39.845Z,95.35
2019-04-28T05:43:10.597Z,95.46
2019-04-28T05:45:39.691Z,95.17
2019-04-28T05:48:11.141Z,94.87
2019-04-28T05:51:01.821Z,93.55
2019-04-28T05:53:40.362Z,93.80
2019-04-28T05:56:21.755Z,93.16
2019-04-28T05:58:53.555Z,93.47
2019-04-28T06:01:42.253Z,92.73
2019-04-28T06:04:11.244Z,92.72
2019-04-28T06:06:42.358Z,93.61
2019-04-28T06:09:26.464Z,93.10
2019-04-28T06:11:54.718Z,92.88
2019-04-28T06:14:24.749Z,92.56
2019-04-28T06:16:53.029Z,92.86
2019-04-28T06:19:21.163Z,93.23
2019-04-28T06:21:49.701Z,92.77
2019-04-28T06:24:18.023Z,93.27
2019-04-28T06:26:46.714Z,92.73
2019-04-28T06:29:14.839Z,95.30
2019-04-28T06:31:43.327Z,95.24
2019-04-28T06:34:11.616Z,95.51
2019-04-28T06:36:40.270Z,96.84
2019-04-28T06:39:09.013Z,97.19
2019-04-28T06:41:37.378Z,97.55
2019-04-28T06:44:05.592Z,98.27
2019-04-28T06:46:33.873Z,99.02
2019-04-28T06:49:02.420Z,99.65
2019-04-28T06:51:30.661Z,98.96
2019-04-28T06:53:58.802Z,100.00
2019-04-28T06:56:26.997Z,99.27
2019-04-28T06:58:59.311Z,98.46
2019-04-28T07:01:25.437Z,96.10
2019-04-28T07:03:54.039Z,95.95
2019-04-28T07:06:22.313Z,96.08
2019-04-28T07:08:50.548Z,95.96
2019-04-28T07:11:19.782Z,96.59
2019-04-28T07:13:48.023Z,95.83
2019-04-28T07:16:16.260Z,95.95
2019-04-28T07:18:48.920Z,96.12
2019-04-28T07:21:42.651Z,96.66
2019-04-28T07:24:11.334Z,96.61
2019-04-28T07:26:39.721Z,98.06
2019-04-28T07:29:08.306Z,97.82
2019-04-28T07:31:36.577Z,97.32
2019-04-28T07:34:05.100Z,97.23
2019-04-28T07:36:33.307Z,97.95
2019-04-28T07:39:01.837Z,97.34
2019-04-28T07:41:30.032Z,98.06
2019-04-28T07:43:58.333Z,98.31
2019-04-28T07:46:26.482Z,98.95
2019-04-28T07:48:55.014Z,99.78
2019-04-28T07:51:25.853Z,99.53
2019-04-28T07:54:02.214Z,100.00
2019-04-28T07:56:28.881Z,100.00
2019-04-28T07:58:57.076Z,100.00
2019-04-28T08:01:25.752Z,100.00
2019-04-28T08:03:54.136Z,100.00
2019-04-28T08:06:22.288Z,100.00
2019-04-28T08:08:50.461Z,100.00
2019-04-28T08:11:18.593Z,100.00
2019-04-28T08:13:46.864Z,100.00
2019-04-28T08:16:15.046Z,100.00
2019-04-28T08:18:43.748Z,100.00
2019-04-28T08:21:11.889Z,100.00
2019-04-28T08:23:46.972Z,100.00
2019-04-28T08:26:10.889Z,100.00
2019-04-28T08:28:39.664Z,100.00
2019-04-28T08:31:09.811Z,100.00
2019-04-28T08:33:44.220Z,100.00
2019-04-28T08:36:12.710Z,100.00
2019-04-28T08:38:41.640Z,100.00
2019-04-28T08:41:10.104Z,100.00
2019-04-28T08:43:38.600Z,100.00
2019-04-28T08:46:06.785Z,100.00
2019-04-28T08:48:34.962Z,100.00
2019-04-28T08:51:03.387Z,100.00
2019-04-28T08:53:31.908Z,100.00
2019-04-28T08:56:00.067Z,100.00
2019-04-28T08:58:28.238Z,100.00
2019-04-28T09:00:57.243Z,98.61
2019-04-28T09:03:25.538Z,98.61
2019-04-28T09:05:54.283Z,100.00
2019-04-28T09:08:22.520Z,100.00
2019-04-28T09:10:50.805Z,98.24
2019-04-28T09:13:19.040Z,96.30
2019-04-28T09:15:47.264Z,96.21
2019-04-28T09:18:15.449Z,95.43
2019-04-28T09:20:43.712Z,94.98
2019-04-28T09:23:11.977Z,93.82
2019-04-28T09:25:40.197Z,92.93
2019-04-28T09:28:08.571Z,91.61
2019-04-28T09:30:36.999Z,92.44
2019-04-28T09:33:05.161Z,89.58
2019-04-28T09:35:33.900Z,89.73
2019-04-28T09:38:02.075Z,90.70
2019-04-28T09:40:30.528Z,88.62
2019-04-28T09:43:30.371Z,89.55
2019-04-28T09:46:23.995Z,87.59
2019-04-28T09:48:52.381Z,83.84
2019-04-28T09:51:20.840Z,84.46
2019-04-28T09:53:49.290Z,89.14
2019-04-28T09:56:17.756Z,82.52
2019-04-28T09:58:46.431Z,79.34
2019-04-28T10:01:14.749Z,82.68
2019-04-28T10:03:43.556Z,78.02
2019-04-28T10:06:12.254Z,76.53
2019-04-28T10:08:40.460Z,77.31
2019-04-28T10:11:09.433Z,76.67
2019-04-28T10:13:38.140Z,75.03
2019-04-28T10:16:20.405Z,72.57
2019-04-28T10:18:49.196Z,73.25
2019-04-28T10:21:19.112Z,72.51
2019-04-28T10:23:47.516Z,73.26
2019-04-28T10:26:17.160Z,72.37
2019-04-28T10:28:45.436Z,75.00
2019-04-28T10:31:13.969Z,74.08
2019-04-28T10:33:46.375Z,73.00
2019-04-28T10:36:15.907Z,74.90
2019-04-28T10:38:46.211Z,73.62
2019-04-28T10:41:35.893Z,75.43
2019-04-28T10:44:04.172Z,74.73
2019-04-28T10:46:32.947Z,75.19
2019-04-28T10:49:02.255Z,70.48
2019-04-28T10:51:30.451Z,70.07
2019-04-28T10:53:58.879Z,68.36
2019-04-28T10:56:27.149Z,67.51
2019-04-28T10:58:57.862Z,67.22
2019-04-28T11:01:26.314Z,71.52
2019-04-28T11:03:57.848Z,74.95
2019-04-28T11:06:26.269Z,70.73
2019-04-28T11:09:05.376Z,69.94
2019-04-28T11:11:33.575Z,70.32
2019-04-28T11:14:03.344Z,68.92
2019-04-28T11:16:35.601Z,68.96
2019-04-28T11:19:04.934Z,66.37
2019-04-28T11:21:33.551Z,66.85
2019-04-28T11:24:02.031Z,69.42
2019-04-28T11:26:30.587Z,68.39
2019-04-28T11:28:59.281Z,65.14
2019-04-28T11:31:27.433Z,61.88
2019-04-28T11:34:13.923Z,62.08
2019-04-28T11:36:42.782Z,62.15
2019-04-28T11:39:14.499Z,62.35
2019-04-28T11:41:43.190Z,62.27
2019-04-28T11:44:11.745Z,63.00
2019-04-28T11:46:40.006Z,61.99
2019-04-28T11:49:08.291Z,61.73
2019-04-28T11:51:36.628Z,63.98
2019-04-28T11:54:04.850Z,61.59
2019-04-28T11:56:41.140Z,62.04
2019-04-28T11:59:04.250Z,60.38
2019-04-28T12:01:33.481Z,58.18
2019-04-28T12:04:04.009Z,61.01
2019-04-28T12:06:32.256Z,61.20
2019-04-28T12:09:16.611Z,61.49
2019-04-28T12:11:47.984Z,60.30
2019-04-28T12:14:36.108Z,61.73
2019-04-28T12:17:22.398Z,60.56
2019-04-28T12:19:54.042Z,61.23
2019-04-28T12:22:22.611Z,63.36
2019-04-28T12:24:50.860Z,60.62
2019-04-28T12:27:19.139Z,56.49
2019-04-28T12:29:47.360Z,57.03
2019-04-28T12:32:15.585Z,55.58
2019-04-28T12:34:43.716Z,55.43
2019-04-28T12:37:12.029Z,53.59
2019-04-28T12:39:40.174Z,55.17
2019-04-28T12:42:08.302Z,57.39
2019-04-28T12:44:36.936Z,54.52
2019-04-28T12:47:05.075Z,56.96
2019-04-28T12:49:43.562Z,59.42
2019-04-28T12:52:13.739Z,57.33
2019-04-28T12:54:44.613Z,58.67
2019-04-28T12:57:12.488Z,60.40
2019-04-28T12:59:49.271Z,58.66
2019-04-28T13:02:52.056Z,58.53
2019-04-28T13:05:20.794Z,58.70
2019-04-28T13:07:48.982Z,58.05
2019-04-28T13:10:17.129Z,56.58
2019-04-28T13:12:45.548Z,58.56
2019-04-28T13:15:14.004Z,58.21
2019-04-28T13:17:42.686Z,57.93
2019-04-28T13:20:11.377Z,57.15
2019-04-28T13:22:40.127Z,57.26
2019-04-28T13:25:08.791Z,56.47
2019-04-28T13:27:36.935Z,53.04
2019-04-28T13:30:05.962Z,52.50
2019-04-28T13:32:34.990Z,55.07
2019-04-28T13:35:04.405Z,56.58
2019-04-28T13:37:32.712Z,56.38
2019-04-28T13:40:05.254Z,55.90
2019-04-28T13:42:33.457Z,55.36
2019-04-28T13:45:11.376Z,55.20
2019-04-28T13:47:40.246Z,55.97
2019-04-28T13:50:33.213Z,55.13
2019-04-28T13:53:01.475Z,56.23
2019-04-28T13:56:04.565Z,54.85
2019-04-28T13:58:51.923Z,54.69
2019-04-28T14:01:45.535Z,55.66
2019-04-28T14:04:36.045Z,55.99
2019-04-28T14:07:05.846Z,55.22
2019-04-28T14:09:34.093Z,54.73
2019-04-28T14:12:02.250Z,57.17
2019-04-28T14:14:30.818Z,57.51
2019-04-28T14:16:59.644Z,58.22
2019-04-28T14:19:28.081Z,57.60
2019-04-28T14:21:56.251Z,57.17
2019-04-28T14:24:24.793Z,59.67
2019-04-28T14:26:53.790Z,59.94
2019-04-28T14:29:22.168Z,59.56
2019-04-28T14:31:50.634Z,58.34
2019-04-28T14:34:19.202Z,59.04
2019-04-28T14:36:47.473Z,59.92
2019-04-28T14:39:16.400Z,59.51
2019-04-28T14:41:44.736Z,59.13
2019-04-28T14:44:13.087Z,58.52
2019-04-28T14:46:41.615Z,57.82
2019-04-28T14:49:09.758Z,59.19
2019-04-28T14:51:38.026Z,59.42
2019-04-28T14:54:06.635Z,58.00
2019-04-28T14:56:34.996Z,58.46
2019-04-28T14:59:04.194Z,59.44
2019-04-28T15:02:07.622Z,60.52
2019-04-28T15:05:10.970Z,60.43
2019-04-28T15:07:58.917Z,62.42
2019-04-28T15:10:33.746Z,62.64
2019-04-28T15:13:02.591Z,62.99
2019-04-28T15:15:30.861Z,63.61
2019-04-28T15:17:59.753Z,68.29
2019-04-28T15:20:27.911Z,70.34
2019-04-28T15:22:56.635Z,72.78
2019-04-28T15:25:25.217Z,73.91
2019-04-28T15:27:53.393Z,74.81
2019-04-28T15:30:22.298Z,76.66
2019-04-28T15:32:50.472Z,77.08
2019-04-28T15:35:18.691Z,77.98
2019-04-28T15:37:46.858Z,78.77
2019-04-28T15:40:15.455Z,79.22
2019-04-28T15:42:44.694Z,80.16
2019-04-28T15:45:13.444Z,81.41
2019-04-28T15:47:41.953Z,80.56
2019-04-28T15:50:10.511Z,80.20
2019-04-28T15:52:38.852Z,80.96
2019-04-28T15:55:09.125Z,81.06
2019-04-28T15:57:37.268Z,79.42
2019-04-28T16:00:08.804Z,78.49
2019-04-28T16:02:37.217Z,78.08
2019-04-28T16:05:05.730Z,78.25
2019-04-28T16:07:34.587Z,80.22
2019-04-28T16:10:03.382Z,77.11
2019-04-28T16:12:31.608Z,76.78
2019-04-28T16:15:00.238Z,75.99
2019-04-28T16:17:28.748Z,74.83
2019-04-28T16:19:56.934Z,75.03
2019-04-28T16:22:25.554Z,74.45
2019-04-28T16:24:53.761Z,75.19
2019-04-28T16:27:22.251Z,74.40
2019-04-28T16:29:50.721Z,75.04
2019-04-28T16:32:19.002Z,74.58
2019-04-28T16:34:47.786Z,74.28
2019-04-28T16:37:15.983Z,74.46
2019-04-28T16:39:44.164Z,73.67
2019-04-28T16:42:23.574Z,71.93
2019-04-28T16:45:03.281Z,72.86
2019-04-28T16:47:31.795Z,73.20
2019-04-28T16:50:00.076Z,71.01
2019-04-28T16:52:28.638Z,71.59
2019-04-28T16:55:16.170Z,71.76
2019-04-28T16:57:59.693Z,71.44
2019-04-28T17:00:56.821Z,71.93
2019-04-28T17:03:27.242Z,72.60
2019-04-28T17:05:55.710Z,71.70
2019-04-28T17:08:23.852Z,73.61
2019-04-28T17:10:52.801Z,71.79
2019-04-28T17:13:20.938Z,70.55
2019-04-28T17:15:49.114Z,70.12
2019-04-28T17:18:17.480Z,70.06
2019-04-28T17:20:46.392Z,70.18
2019-04-28T17:23:14.660Z,69.82
2019-04-28T17:25:42.977Z,70.54
2019-04-28T17:28:11.404Z,72.16
2019-04-28T17:30:39.590Z,70.39
2019-04-28T17:33:08.172Z,70.82
2019-04-28T17:35:37.190Z,71.21
2019-04-28T17:38:06.638Z,70.17
2019-04-28T17:40:36.151Z,69.56
2019-04-28T17:43:06.763Z,67.83
2019-04-28T17:45:35.109Z,70.09
2019-04-28T17:48:12.784Z,70.21
2019-04-28T17:50:41.083Z,70.53
2019-04-28T17:53:09.690Z,71.57
2019-04-28T17:55:38.198Z,72.34
2019-04-28T17:58:06.360Z,72.94
2019-04-28T18:00:47.288Z,73.80
2019-04-28T18:03:29.297Z,74.53
2019-04-28T18:06:17.595Z,75.06
2019-04-28T18:08:37.991Z,75.45
2019-04-28T18:11:06.192Z,75.98
2019-04-28T18:13:35.338Z,76.99
2019-04-28T18:16:32.435Z,77.76
2019-04-28T18:19:04.255Z,78.63
2019-04-28T18:21:32.712Z,76.77
2019-04-28T18:24:00.908Z,76.77
2019-04-28T18:26:29.337Z,77.54
2019-04-28T18:28:58.364Z,79.41
2019-04-28T18:31:43.259Z,80.73
2019-04-28T18:34:20.807Z,82.94
2019-04-28T18:36:58.575Z,83.30
2019-04-28T18:39:45.475Z,82.84
2019-04-28T18:42:26.426Z,82.48
2019-04-28T18:44:54.820Z,83.70
2019-04-28T18:47:23.506Z,84.43
2019-04-28T18:49:52.367Z,85.12
2019-04-28T18:52:20.508Z,84.73
2019-04-28T18:54:49.346Z,86.71
2019-04-28T18:57:17.540Z,88.55
2019-04-28T18:59:46.068Z,90.71
2019-04-28T19:02:42.881Z,90.90
2019-04-28T19:05:12.772Z,90.59
2019-04-28T19:08:15.630Z,91.64
2019-04-28T19:10:52.896Z,92.61
2019-04-28T19:13:24.701Z,93.30
2019-04-28T19:16:05.065Z,94.08
2019-04-28T19:18:36.001Z,93.78
2019-04-28T19:21:04.179Z,94.56
2019-04-28T19:23:32.471Z,94.24
2019-04-28T19:26:00.892Z,95.25
2019-04-28T19:28:29.029Z,96.48
2019-04-28T19:30:57.638Z,97.10
2019-04-28T19:33:25.969Z,96.18
2019-04-28T19:35:54.455Z,95.69
2019-04-28T19:38:23.699Z,96.08
2019-04-28T19:40:52.088Z,95.02
2019-04-28T19:43:21.076Z,95.43
2019-04-28T19:45:51.273Z,96.25
2019-04-28T19:48:19.456Z,96.22
2019-04-28T19:50:48.105Z,98.03
2019-04-28T19:53:16.373Z,98.54
2019-04-28T19:55:51.986Z,98.12
2019-04-28T19:58:34.662Z,98.33
2019-04-28T20:01:18.202Z,98.65
2019-04-28T20:03:46.951Z,98.59
2019-04-28T20:06:15.115Z,97.87
2019-04-28T20:08:43.381Z,98.78
2019-04-28T20:11:12.080Z,99.83
2019-04-28T20:13:40.617Z,99.69
2019-04-28T20:16:08.976Z,99.98
2019-04-28T20:18:37.228Z,100.00
2019-04-28T20:21:05.603Z,100.00
2019-04-28T20:23:33.738Z,98.55
2019-04-28T20:26:02.105Z,98.19
2019-04-28T20:28:30.253Z,96.75
2019-04-28T20:30:58.998Z,96.05
2019-04-28T20:33:27.485Z,96.51
2019-04-28T20:36:00.008Z,97.20
2019-04-28T20:38:32.168Z,97.48
2019-04-28T20:41:26.027Z,96.34
2019-04-28T20:43:55.148Z,96.79
2019-04-28T20:46:23.408Z,97.08
2019-04-28T20:48:51.951Z,97.42
2019-04-28T20:51:20.380Z,97.17
2019-04-28T20:53:48.670Z,97.89
2019-04-28T20:56:16.948Z,97.96
2019-04-28T20:58:45.220Z,97.01
2019-04-28T21:01:13.385Z,97.36
2019-04-28T21:03:42.181Z,97.91
2019-04-28T21:06:10.352Z,97.85
2019-04-28T21:08:38.776Z,98.47
2019-04-28T21:11:06.956Z,98.86
2019-04-28T21:13:35.669Z,99.45
2019-04-28T21:16:03.956Z,100.00
2019-04-28T21:18:32.133Z,100.00
2019-04-28T21:21:00.329Z,100.00
2019-04-28T21:23:28.847Z,98.91
2019-04-28T21:25:56.980Z,99.46
2019-04-28T21:28:25.197Z,99.34
2019-04-28T21:30:53.503Z,99.51
2019-04-28T21:33:21.955Z,99.64
2019-04-28T21:35:50.346Z,100.00
2019-04-28T21:38:18.764Z,99.32
2019-04-28T21:40:47.668Z,99.49
2019-04-28T21:43:35.982Z,100.00
2019-04-28T21:46:16.158Z,100.00
2019-04-28T21:48:58.615Z,100.00
2019-04-28T21:51:27.237Z,100.00
2019-04-28T21:53:56.025Z,100.00
2019-04-28T21:56:24.711Z,100.00
2019-04-28T21:58:52.834Z,100.00
2019-04-28T22:01:22.770Z,100.00
2019-04-28T22:03:50.964Z,100.00
2019-04-28T22:06:19.815Z,100.00
2019-04-28T22:08:47.992Z,100.00
2019-04-28T22:11:16.214Z,100.00
2019-04-28T22:13:44.910Z,100.00
2019-04-28T22:16:13.563Z,100.00
2019-04-28T22:18:41.737Z,100.00
2019-04-28T22:21:09.886Z,100.00
2019-04-28T22:23:51.893Z,100.00
2019-04-28T22:26:38.248Z,100.00
2019-04-28T22:29:06.413Z,100.00
2019-04-28T22:31:34.959Z,100.00
2019-04-28T22:34:03.389Z,100.00
2019-04-28T22:36:32.100Z,100.00
2019-04-28T22:39:00.589Z,100.00
2019-04-28T22:41:29.553Z,100.00
2019-04-28T22:43:57.768Z,100.00
2019-04-28T22:46:26.176Z,100.00
2019-04-28T22:48:56.639Z,100.00
2019-04-28T22:51:24.792Z,100.00
2019-04-28T22:53:53.252Z,100.00
2019-04-28T22:56:35.102Z,100.00
2019-04-28T22:59:09.610Z,100.00
2019-04-28T23:01:41.025Z,100.00
2019-04-28T23:04:25.775Z,100.00
2019-04-28T23:06:54.023Z,100.00
2019-04-28T23:09:22.775Z,100.00
2019-04-28T23:11:51.241Z,100.00
2019-04-28T23:14:19.498Z,100.00
2019-04-28T23:16:48.113Z,100.00
2019-04-28T23:19:18.141Z,100.00
2019-04-28T23:22:04.879Z,100.00
2019-04-28T23:24:33.757Z,100.00
2019-04-28T23:27:02.349Z,100.00
2019-04-28T23:29:30.795Z,100.00
2019-04-28T23:32:00.428Z,100.00
2019-04-28T23:34:28.925Z,100.00
2019-04-28T23:36:57.413Z,100.00
2019-04-28T23:39:25.747Z,100.00
2019-04-28T23:41:59.708Z,100.00
2019-04-28T23:44:27.916Z,100.00
2019-04-28T23:46:57.725Z,100.00
2019-04-28T23:49:28.175Z,100.00
2019-04-28T23:52:09.417Z,100.00
2019-04-28T23:54:39.619Z,100.00
2019-04-28T23:57:07.796Z,100.00
2019-04-28T23:59:36.128Z,100.00
